createdAt,value
2018-04-26T00:05:50.283Z,10.39
2018-04-26T00:11:41.021Z,11.24
2018-04-26T00:17:31.717Z,11.3
2018-04-26T00:23:22.423Z,12.26
2018-04-26T00:29:13.169Z,12.17
2018-04-26T00:35:03.846Z,12.54
2018-04-26T00:40:54.529Z,12.67
2018-04-26T00:46:45.247Z,12.65
2018-04-26T00:52:35.993Z,12.49
2018-04-26T00:58:26.642Z,11.88
2018-04-26T01:04:17.419Z,10.64
2018-04-26T01:10:08.108Z,12.51
2018-04-26T01:15:58.795Z,11.43
2018-04-26T01:21:49.491Z,13.12
2018-04-26T01:27:40.194Z,11.76
2018-04-26T01:33:30.918Z,10.97
2018-04-26T01:39:21.649Z,10.8
2018-04-26T01:45:12.384Z,10.63
2018-04-26T01:51:03.070Z,12.15
2018-04-26T01:56:53.698Z,11.76
2018-04-26T02:02:44.432Z,11.68
2018-04-26T02:08:35.115Z,11.99
2018-04-26T02:14:25.784Z,13
2018-04-26T02:20:16.503Z,12.07
2018-04-26T02:26:07.222Z,11.51
2018-04-26T02:31:57.890Z,11.12
2018-04-26T02:37:48.619Z,10.98
2018-04-26T02:43:39.311Z,10.93
2018-04-26T02:49:30.037Z,13.88
2018-04-26T02:55:20.726Z,13
2018-04-26T03:01:11.418Z,12.01
2018-04-26T03:07:02.043Z,11.37
2018-04-26T03:12:52.757Z,13.09
2018-04-26T03:18:43.425Z,12.96
2018-04-26T03:24:34.111Z,13.24
2018-04-26T03:30:24.798Z,12.84
2018-04-26T03:36:15.471Z,11.64
2018-04-26T03:42:06.163Z,12.14
2018-04-26T03:47:56.838Z,12.74
2018-04-26T03:53:47.565Z,13.53
2018-04-26T03:59:38.197Z,13.75
2018-04-26T04:05:28.890Z,13.43
2018-04-26T04:11:19.640Z,12.69
2018-04-26T04:17:10.276Z,11.11
2018-04-26T04:23:00.961Z,11.48
2018-04-26T04:28:51.630Z,11.81
2018-04-26T04:34:42.368Z,12.98
2018-04-26T04:40:32.970Z,12.56
2018-04-26T04:46:23.692Z,12.03
2018-04-26T04:52:14.380Z,12.15
2018-04-26T04:58:05.056Z,11.54
2018-04-26T05:03:55.738Z,13.49
2018-04-26T05:09:46.425Z,12.83
2018-04-26T05:15:37.104Z,12.75
2018-04-26T05:21:27.774Z,13.89
2018-04-26T05:27:18.585Z,15.04
2018-04-26T05:33:09.164Z,17.06
2018-04-26T05:38:59.972Z,21.05
2018-04-26T05:44:51.445Z,27.57
2018-04-26T05:50:41.290Z,28.47
2018-04-26T05:56:31.994Z,27.15
2018-04-26T06:02:22.721Z,22.51
2018-04-26T06:08:13.503Z,21.82
2018-04-26T06:14:04.222Z,20.69
2018-04-26T06:19:55.064Z,18.94
2018-04-26T06:25:45.679Z,17.76
2018-04-26T06:31:36.467Z,19.22
2018-04-26T06:37:27.207Z,19.05
2018-04-26T06:43:17.935Z,18.91
2018-04-26T06:49:08.724Z,18.65
2018-04-26T06:54:59.483Z,18.16
2018-04-26T07:00:50.255Z,16.51
2018-04-26T07:06:41.007Z,16.46
2018-04-26T07:12:31.784Z,18.15
2018-04-26T07:18:22.638Z,18.23
2018-04-26T07:24:13.415Z,17.3
2018-04-26T07:30:04.190Z,16.25
2018-04-26T07:35:55.014Z,17.66
2018-04-26T07:41:45.872Z,16.52
2018-04-26T07:47:36.732Z,20.36
2018-04-26T07:53:27.551Z,19
2018-04-26T07:59:18.450Z,21.78
2018-04-26T08:05:09.305Z,20.81
2018-04-26T08:11:00.174Z,20.92
2018-04-26T08:16:51.062Z,17.85
2018-04-26T08:22:41.942Z,15.15
2018-04-26T08:28:32.841Z,11.77
2018-04-26T08:34:23.777Z,9.71
2018-04-26T08:40:14.608Z,6.37
2018-04-26T08:46:05.544Z,7.19
2018-04-26T08:51:56.331Z,8.45
2018-04-26T08:57:47.162Z,9.88
2018-04-26T09:03:37.977Z,10.58
2018-04-26T09:09:28.868Z,8.94
2018-04-26T09:15:19.658Z,8.93
2018-04-26T09:21:10.494Z,9.48
2018-04-26T09:27:01.383Z,8.89
2018-04-26T09:32:52.169Z,8.11
2018-04-26T09:38:43.105Z,7.35
2018-04-26T09:44:33.896Z,8.13
2018-04-26T09:50:24.768Z,8.12
2018-04-26T09:56:15.654Z,7.9
2018-04-26T10:02:06.458Z,7.8
2018-04-26T10:07:57.344Z,7.33
2018-04-26T10:13:48.177Z,7.58
2018-04-26T10:19:39.049Z,7.39
2018-04-26T10:25:29.951Z,7.56
2018-04-26T10:31:20.780Z,6.82
2018-04-26T10:37:11.633Z,6.54
2018-04-26T10:43:02.507Z,6.61
2018-04-26T10:48:53.409Z,5.49
2018-04-26T10:54:44.273Z,5.06
2018-04-26T11:00:35.166Z,5.53
2018-04-26T11:06:26.006Z,4.86
2018-04-26T11:12:16.914Z,5.65
2018-04-26T11:18:07.737Z,4.47
2018-04-26T11:23:58.604Z,4.5
2018-04-26T11:29:49.518Z,4.33
2018-04-26T11:35:40.348Z,3.81
2018-04-26T11:41:31.250Z,3.81
2018-04-26T11:47:22.129Z,4.29
2018-04-26T11:53:13.040Z,4.25
2018-04-26T11:59:03.867Z,4.18
2018-04-26T12:04:54.748Z,4.2
2018-04-26T12:10:45.660Z,4.47
2018-04-26T12:16:36.516Z,4.6
2018-04-26T12:22:27.438Z,4.67
2018-04-26T12:28:18.365Z,4.19
2018-04-26T12:34:09.186Z,3.72
2018-04-26T12:40:00.059Z,3.95
2018-04-26T12:45:50.946Z,3.74
2018-04-26T12:51:41.768Z,3.98
2018-04-26T12:57:32.646Z,3.86
2018-04-26T13:03:23.464Z,3.54
2018-04-26T13:09:14.287Z,4.02
2018-04-26T13:15:05.145Z,3.75
2018-04-26T13:20:55.976Z,4.04
2018-04-26T13:26:46.839Z,3.71
2018-04-26T13:32:37.585Z,4.45
2018-04-26T13:38:28.420Z,3.48
2018-04-26T13:44:19.247Z,4.43
2018-04-26T13:50:10.078Z,4.2
2018-04-26T13:56:00.915Z,4.54
2018-04-26T14:01:51.800Z,4.79
2018-04-26T14:07:42.580Z,5.01
2018-04-26T14:13:33.388Z,4.64
2018-04-26T14:19:24.196Z,4.56
2018-04-26T14:25:15.121Z,4.3
2018-04-26T14:31:06.016Z,4.27
2018-04-26T14:36:56.919Z,4.59
2018-04-26T14:42:47.851Z,4.11
2018-04-26T14:48:38.713Z,4.41
2018-04-26T14:54:29.631Z,4.69
2018-04-26T15:00:20.488Z,5.4
2018-04-26T15:06:11.362Z,4.51
2018-04-26T15:12:02.318Z,4.75
2018-04-26T15:17:53.198Z,4.75
2018-04-26T15:23:44.102Z,4.73
2018-04-26T15:29:35.015Z,4.96
2018-04-26T15:35:25.878Z,4.69
2018-04-26T15:41:16.771Z,4.29
2018-04-26T15:47:07.706Z,5.2
2018-04-26T15:52:58.518Z,4.89
2018-04-26T15:58:49.404Z,5.08
2018-04-26T16:04:40.242Z,5.22
2018-04-26T16:10:31.166Z,5.61
2018-04-26T16:16:22.003Z,5.18
2018-04-26T16:22:12.855Z,5.55
2018-04-26T16:28:03.764Z,6.99
2018-04-26T16:33:54.554Z,5.54
2018-04-26T16:39:45.412Z,5.6
2018-04-26T16:45:36.246Z,6.95
2018-04-26T16:51:27.088Z,5.05
2018-04-26T16:57:17.905Z,5.68
2018-04-26T17:03:08.762Z,5.79
2018-04-26T17:08:59.565Z,5.41
2018-04-26T17:14:50.396Z,5.45
2018-04-26T17:20:41.218Z,5.76
2018-04-26T17:26:32.042Z,6.77
2018-04-26T17:32:22.845Z,6.22
2018-04-26T17:38:13.622Z,6.23
2018-04-26T17:44:04.397Z,7.05
2018-04-26T17:49:55.238Z,6.74
2018-04-26T17:55:46.054Z,7.44
2018-04-26T18:01:36.736Z,7.65
2018-04-26T18:07:27.508Z,7.41
2018-04-26T18:13:18.259Z,7.58
2018-04-26T18:19:09.034Z,7.47
2018-04-26T18:24:59.826Z,8.5
2018-04-26T18:30:50.573Z,8.68
2018-04-26T18:36:41.328Z,9.11
2018-04-26T18:42:32.137Z,8.48
2018-04-26T18:48:22.841Z,8.18
2018-04-26T18:54:13.604Z,8.15
2018-04-26T19:00:04.413Z,8.75
2018-04-26T19:05:55.061Z,8.99
2018-04-26T19:11:45.819Z,8.9
2018-04-26T19:17:36.615Z,9.2
2018-04-26T19:23:27.287Z,54.7
2018-04-26T19:29:18.061Z,21.1
2018-04-26T19:35:08.781Z,12.67
2018-04-26T19:40:59.480Z,9.68
2018-04-26T19:46:50.219Z,10
2018-04-26T19:52:40.971Z,10.54
2018-04-26T19:58:31.659Z,10.2
2018-04-26T20:04:22.423Z,10.75
2018-04-26T20:10:13.117Z,9.9
2018-04-26T20:16:03.867Z,46.32
2018-04-26T20:21:54.581Z,22.05
2018-04-26T20:27:45.333Z,12.39
2018-04-26T20:33:36.105Z,10.69
2018-04-26T20:39:26.783Z,11.54
2018-04-26T20:45:17.494Z,10.86
2018-04-26T20:51:08.255Z,12.11
2018-04-26T20:56:58.973Z,12.21
2018-04-26T21:02:49.631Z,11.4
2018-04-26T21:08:40.429Z,10.42
2018-04-26T21:14:31.121Z,11.77
2018-04-26T21:20:21.805Z,11.59
2018-04-26T21:26:12.563Z,10.68
2018-04-26T21:32:03.259Z,11.29
2018-04-26T21:37:53.955Z,12.32
2018-04-26T21:43:44.768Z,11.88
2018-04-26T21:49:35.386Z,11.84
2018-04-26T21:55:26.128Z,12.6
2018-04-26T22:01:16.910Z,11.42
2018-04-26T22:07:07.530Z,11.55
2018-04-26T22:12:58.234Z,12.18
2018-04-26T22:18:48.923Z,12.14
2018-04-26T22:24:39.700Z,12.8
2018-04-26T22:30:30.360Z,12
2018-04-26T22:36:21.054Z,11.82
2018-04-26T22:42:11.778Z,12.95
2018-04-26T22:48:02.471Z,12.25
2018-04-26T22:53:53.261Z,12.12
2018-04-26T22:59:44.101Z,11.51
2018-04-26T23:05:34.578Z,11.73
2018-04-26T23:11:25.315Z,11.18
2018-04-26T23:17:15.965Z,11.75
2018-04-26T23:23:06.658Z,11.38
2018-04-26T23:28:57.370Z,12.37
2018-04-26T23:34:48.064Z,11.23
2018-04-26T23:40:38.808Z,12.67
2018-04-26T23:46:29.467Z,11.6
2018-04-26T23:52:20.152Z,10.55
2018-04-26T23:58:10.879Z,11.87
